Terminal Aerodrome Forecast
Issued by NWS

Home | Current Version | Previous Version | Graphics & Text | Print | Product List | Glossary Off
Versions: 1 2 3 4 5 6 7 8 9 10 11 12 13 14 15 16 17 18

000
FTUS43 KICT 311450 AAA
TAFRSL
TAF AMD
KRSL 311450Z 3115/0112 16011KT 5SM -RA BR SCT007 OVC009
      TEMPO 3115/3118 3SM -RASNPL BR
     FM311800 17013KT P6SM -RA BKN007 OVC015
     FM010600 33014G19KT P6SM -SNRA BKN007 OVC015
     FM011000 34016KT P6SM VCSH BKN015=

USA.gov is the U.S. government's official web portal to all federal, state and local government web resources and services.